sensor_id;sensor_type;location;lat;lon;timestamp;temperature;humidity
18733;DHT22;9495;51.210;2.934;2023-01-08T00:01:23;14.70;99.90
18733;DHT22;9495;51.210;2.934;2023-01-08T00:03:52;13.90;99.90
18733;DHT22;9495;51.210;2.934;2023-01-08T00:06:22;15.10;99.90
18733;DHT22;9495;51.210;2.934;2023-01-08T00:08:51;13.80;99.90
18733;DHT22;9495;51.210;2.934;2023-01-08T00:11:19;13.60;99.90
18733;DHT22;9495;51.210;2.934;2023-01-08T00:13:48;13.60;99.90
18733;DHT22;9495;51.210;2.934;2023-01-08T00:16:17;13.90;99.90
18733;DHT22;9495;51.210;2.934;2023-01-08T00:18:46;14.30;99.90
18733;DHT22;9495;51.210;2.934;2023-01-08T00:21:15;14.40;99.90
18733;DHT22;9495;51.210;2.934;2023-01-08T00:23:45;15.10;99.90
18733;DHT22;9495;51.210;2.934;2023-01-08T00:26:13;14.40;99.90
18733;DHT22;9495;51.210;2.934;2023-01-08T00:28:42;15.10;99.90
18733;DHT22;9495;51.210;2.934;2023-01-08T00:31:12;15.20;99.90
18733;DHT22;9495;51.210;2.934;2023-01-08T00:33:40;15.10;99.90
18733;DHT22;9495;51.210;2.934;2023-01-08T00:36:10;15.40;99.90
18733;DHT22;9495;51.210;2.934;2023-01-08T00:38:40;14.80;99.90
18733;DHT22;9495;51.210;2.934;2023-01-08T00:41:10;14.40;99.90
18733;DHT22;9495;51.210;2.934;2023-01-08T00:43:39;15.00;99.90
18733;DHT22;9495;51.210;2.934;2023-01-08T00:46:08;15.20;99.90
18733;DHT22;9495;51.210;2.934;2023-01-08T00:48:36;14.30;99.90
18733;DHT22;9495;51.210;2.934;2023-01-08T00:51:06;14.30;99.90
18733;DHT22;9495;51.210;2.934;2023-01-08T00:53:34;14.10;99.90
18733;DHT22;9495;51.210;2.934;2023-01-08T00:56:05;14.20;99.90
18733;DHT22;9495;51.210;2.934;2023-01-08T00:58:35;14.00;99.90
18733;DHT22;9495;51.210;2.934;2023-01-08T01:01:08;14.10;99.90
18733;DHT22;9495;51.210;2.934;2023-01-08T01:03:37;14.50;99.90
18733;DHT22;9495;51.210;2.934;2023-01-08T01:06:06;13.30;99.90
18733;DHT22;9495;51.210;2.934;2023-01-08T01:08:35;12.90;99.90
18733;DHT22;9495;51.210;2.934;2023-01-08T01:11:06;13.10;99.90
18733;DHT22;9495;51.210;2.934;2023-01-08T01:13:36;13.50;99.90
18733;DHT22;9495;51.210;2.934;2023-01-08T01:16:04;12.60;99.90
18733;DHT22;9495;51.210;2.934;2023-01-08T01:18:33;12.70;99.90
18733;DHT22;9495;51.210;2.934;2023-01-08T01:21:01;12.10;99.90
18733;DHT22;9495;51.210;2.934;2023-01-08T01:23:36;12.10;99.90
18733;DHT22;9495;51.210;2.934;2023-01-08T01:26:05;11.60;99.90
18733;DHT22;9495;51.210;2.934;2023-01-08T01:28:34;11.90;99.90
18733;DHT22;9495;51.210;2.934;2023-01-08T01:31:03;11.50;99.90
18733;DHT22;9495;51.210;2.934;2023-01-08T01:33:33;11.10;99.90
18733;DHT22;9495;51.210;2.934;2023-01-08T01:36:01;10.90;99.90
18733;DHT22;9495;51.210;2.934;2023-01-08T01:38:30;10.60;99.90
18733;DHT22;9495;51.210;2.934;2023-01-08T01:40:58;10.60;99.90
18733;DHT22;9495;51.210;2.934;2023-01-08T01:43:36;11.00;99.90
18733;DHT22;9495;51.210;2.934;2023-01-08T01:46:17;11.00;99.90
18733;DHT22;9495;51.210;2.934;2023-01-08T01:48:50;10.60;99.90
18733;DHT22;9495;51.210;2.934;2023-01-08T01:51:20;10.50;99.90
18733;DHT22;9495;51.210;2.934;2023-01-08T01:53:49;10.40;99.90
18733;DHT22;9495;51.210;2.934;2023-01-08T01:56:17;10.40;99.90
18733;DHT22;9495;51.210;2.934;2023-01-08T01:58:47;10.50;99.90
18733;DHT22;9495;51.210;2.934;2023-01-08T02:01:15;10.30;99.90
18733;DHT22;9495;51.210;2.934;2023-01-08T02:03:44;10.40;99.90
18733;DHT22;9495;51.210;2.934;2023-01-08T02:06:18;10.20;99.90
18733;DHT22;9495;51.210;2.934;2023-01-08T02:08:55;10.20;99.90
18733;DHT22;9495;51.210;2.934;2023-01-08T02:11:30;10.10;99.90
18733;DHT22;9495;51.210;2.934;2023-01-08T02:14:07;10.70;99.90
18733;DHT22;9495;51.210;2.934;2023-01-08T02:16:42;10.50;99.90
18733;DHT22;9495;51.210;2.934;2023-01-08T02:19:21;10.80;99.90
18733;DHT22;9495;51.210;2.934;2023-01-08T02:22:09;10.50;99.90
18733;DHT22;9495;51.210;2.934;2023-01-08T02:24:50;10.50;99.90
18733;DHT22;9495;51.210;2.934;2023-01-08T02:27:23;10.10;99.90
18733;DHT22;9495;51.210;2.934;2023-01-08T02:29:52;9.90;99.90
18733;DHT22;9495;51.210;2.934;2023-01-08T02:32:25;10.00;99.90
18733;DHT22;9495;51.210;2.934;2023-01-08T02:34:54;10.00;99.90
18733;DHT22;9495;51.210;2.934;2023-01-08T02:37:22;10.00;99.90
18733;DHT22;9495;51.210;2.934;2023-01-08T02:40:10;10.40;99.90
18733;DHT22;9495;51.210;2.934;2023-01-08T02:42:46;10.00;99.90
18733;DHT22;9495;51.210;2.934;2023-01-08T02:45:28;10.30;99.90
18733;DHT22;9495;51.210;2.934;2023-01-08T02:48:03;10.10;99.90
18733;DHT22;9495;51.210;2.934;2023-01-08T02:50:38;10.40;99.90
18733;DHT22;9495;51.210;2.934;2023-01-08T02:53:11;9.90;99.90
18733;DHT22;9495;51.210;2.934;2023-01-08T02:55:42;10.00;99.90
18733;DHT22;9495;51.210;2.934;2023-01-08T02:58:13;10.00;99.90
18733;DHT22;9495;51.210;2.934;2023-01-08T03:00:43;10.10;99.90
18733;DHT22;9495;51.210;2.934;2023-01-08T03:03:16;9.80;99.90
18733;DHT22;9495;51.210;2.934;2023-01-08T03:05:48;9.50;99.90
18733;DHT22;9495;51.210;2.934;2023-01-08T03:08:18;9.60;99.90
18733;DHT22;9495;51.210;2.934;2023-01-08T03:10:50;9.60;99.90
18733;DHT22;9495;51.210;2.934;2023-01-08T03:13:23;9.50;99.90
18733;DHT22;9495;51.210;2.934;2023-01-08T03:15:56;9.30;99.90
18733;DHT22;9495;51.210;2.934;2023-01-08T03:18:29;9.70;99.90
18733;DHT22;9495;51.210;2.934;2023-01-08T03:21:01;9.40;99.90
18733;DHT22;9495;51.210;2.934;2023-01-08T03:23:32;9.30;99.90
18733;DHT22;9495;51.210;2.934;2023-01-08T03:26:04;9.20;99.90
18733;DHT22;9495;51.210;2.934;2023-01-08T03:28:41;9.40;99.90
18733;DHT22;9495;51.210;2.934;2023-01-08T03:31:13;9.20;99.90
18733;DHT22;9495;51.210;2.934;2023-01-08T03:33:43;9.20;99.90
18733;DHT22;9495;51.210;2.934;2023-01-08T03:36:14;9.00;99.90
18733;DHT22;9495;51.210;2.934;2023-01-08T03:38:47;9.70;99.90
18733;DHT22;9495;51.210;2.934;2023-01-08T03:41:20;9.30;99.90
18733;DHT22;9495;51.210;2.934;2023-01-08T03:43:51;9.20;99.90
18733;DHT22;9495;51.210;2.934;2023-01-08T03:46:21;9.10;99.90
18733;DHT22;9495;51.210;2.934;2023-01-08T03:48:50;9.10;99.90
18733;DHT22;9495;51.210;2.934;2023-01-08T03:51:19;9.10;99.90
18733;DHT22;9495;51.210;2.934;2023-01-08T03:53:48;9.00;99.90
18733;DHT22;9495;51.210;2.934;2023-01-08T03:56:17;9.30;99.90
18733;DHT22;9495;51.210;2.934;2023-01-08T03:58:46;9.90;99.90
18733;DHT22;9495;51.210;2.934;2023-01-08T04:01:15;9.60;99.90
18733;DHT22;9495;51.210;2.934;2023-01-08T04:03:44;9.20;99.90
18733;DHT22;9495;51.210;2.934;2023-01-08T04:06:13;9.20;99.90
18733;DHT22;9495;51.210;2.934;2023-01-08T04:08:41;9.60;99.90
18733;DHT22;9495;51.210;2.934;2023-01-08T04:11:09;9.30;99.90
18733;DHT22;9495;51.210;2.934;2023-01-08T04:13:37;9.10;99.90
18733;DHT22;9495;51.210;2.934;2023-01-08T04:16:06;9.50;99.90
18733;DHT22;9495;51.210;2.934;2023-01-08T04:18:36;9.70;99.90
18733;DHT22;9495;51.210;2.934;2023-01-08T04:21:05;9.80;99.90
18733;DHT22;9495;51.210;2.934;2023-01-08T04:23:33;9.30;99.90
18733;DHT22;9495;51.210;2.934;2023-01-08T04:26:03;9.10;99.90
18733;DHT22;9495;51.210;2.934;2023-01-08T04:28:32;9.70;99.90
18733;DHT22;9495;51.210;2.934;2023-01-08T04:31:04;9.70;99.90
18733;DHT22;9495;51.210;2.934;2023-01-08T04:33:33;9.40;99.90
18733;DHT22;9495;51.210;2.934;2023-01-08T04:36:04;9.30;99.90
18733;DHT22;9495;51.210;2.934;2023-01-08T04:38:32;9.20;99.90
18733;DHT22;9495;51.210;2.934;2023-01-08T04:41:01;9.10;99.90
18733;DHT22;9495;51.210;2.934;2023-01-08T04:43:30;9.10;99.90
18733;DHT22;9495;51.210;2.934;2023-01-08T04:45:59;9.20;99.90
18733;DHT22;9495;51.210;2.934;2023-01-08T04:48:29;9.20;99.90
18733;DHT22;9495;51.210;2.934;2023-01-08T04:50:57;9.80;99.90
18733;DHT22;9495;51.210;2.934;2023-01-08T04:53:28;9.40;99.90
18733;DHT22;9495;51.210;2.934;2023-01-08T04:56:02;9.80;99.90
18733;DHT22;9495;51.210;2.934;2023-01-08T04:58:31;9.80;99.90
18733;DHT22;9495;51.210;2.934;2023-01-08T05:01:00;9.40;99.90
18733;DHT22;9495;51.210;2.934;2023-01-08T05:03:28;9.00;99.90
18733;DHT22;9495;51.210;2.934;2023-01-08T05:05:59;9.00;99.90
18733;DHT22;9495;51.210;2.934;2023-01-08T05:08:29;9.20;99.90
18733;DHT22;9495;51.210;2.934;2023-01-08T05:10:58;9.00;99.90
18733;DHT22;9495;51.210;2.934;2023-01-08T05:13:26;9.30;99.90
18733;DHT22;9495;51.210;2.934;2023-01-08T05:15:58;9.50;99.90
18733;DHT22;9495;51.210;2.934;2023-01-08T05:18:27;10.30;99.90
18733;DHT22;9495;51.210;2.934;2023-01-08T05:20:59;9.70;99.90
18733;DHT22;9495;51.210;2.934;2023-01-08T05:23:29;9.80;99.90
18733;DHT22;9495;51.210;2.934;2023-01-08T05:25:58;10.10;99.90
18733;DHT22;9495;51.210;2.934;2023-01-08T05:28:26;9.60;99.90
18733;DHT22;9495;51.210;2.934;2023-01-08T05:30:55;9.60;99.90
18733;DHT22;9495;51.210;2.934;2023-01-08T05:33:24;9.50;99.90
18733;DHT22;9495;51.210;2.934;2023-01-08T05:35:53;9.60;99.90
18733;DHT22;9495;51.210;2.934;2023-01-08T05:38:22;10.20;99.90
18733;DHT22;9495;51.210;2.934;2023-01-08T05:40:52;9.60;99.90
18733;DHT22;9495;51.210;2.934;2023-01-08T05:43:21;9.70;99.90
18733;DHT22;9495;51.210;2.934;2023-01-08T05:45:49;9.60;99.90
18733;DHT22;9495;51.210;2.934;2023-01-08T05:48:18;9.30;99.90
18733;DHT22;9495;51.210;2.934;2023-01-08T05:50:48;9.50;99.90
18733;DHT22;9495;51.210;2.934;2023-01-08T05:53:17;9.90;99.90
18733;DHT22;9495;51.210;2.934;2023-01-08T05:55:46;9.80;99.90
18733;DHT22;9495;51.210;2.934;2023-01-08T05:58:15;9.40;99.90
18733;DHT22;9495;51.210;2.934;2023-01-08T06:00:45;9.50;99.90
18733;DHT22;9495;51.210;2.934;2023-01-08T06:03:14;9.40;99.90
18733;DHT22;9495;51.210;2.934;2023-01-08T06:05:42;9.00;99.90
18733;DHT22;9495;51.210;2.934;2023-01-08T06:08:10;9.20;99.90
18733;DHT22;9495;51.210;2.934;2023-01-08T06:10:39;9.30;99.90
18733;DHT22;9495;51.210;2.934;2023-01-08T06:13:08;8.90;99.90
18733;DHT22;9495;51.210;2.934;2023-01-08T06:15:38;8.60;99.90
18733;DHT22;9495;51.210;2.934;2023-01-08T06:18:06;8.50;99.90
18733;DHT22;9495;51.210;2.934;2023-01-08T06:20:35;8.90;99.90
18733;DHT22;9495;51.210;2.934;2023-01-08T06:23:03;9.10;99.90
18733;DHT22;9495;51.210;2.934;2023-01-08T06:25:32;9.40;99.90
18733;DHT22;9495;51.210;2.934;2023-01-08T06:28:00;9.30;99.90
18733;DHT22;9495;51.210;2.934;2023-01-08T06:30:29;9.50;99.90
18733;DHT22;9495;51.210;2.934;2023-01-08T06:32:59;9.00;99.90
18733;DHT22;9495;51.210;2.934;2023-01-08T06:35:28;9.10;99.90
18733;DHT22;9495;51.210;2.934;2023-01-08T06:37:56;9.20;99.90
18733;DHT22;9495;51.210;2.934;2023-01-08T06:40:24;9.00;99.90
18733;DHT22;9495;51.210;2.934;2023-01-08T06:42:53;8.70;99.90
18733;DHT22;9495;51.210;2.934;2023-01-08T06:45:22;8.50;99.90
18733;DHT22;9495;51.210;2.934;2023-01-08T06:47:50;8.40;99.90
18733;DHT22;9495;51.210;2.934;2023-01-08T06:50:20;8.40;99.90
18733;DHT22;9495;51.210;2.934;2023-01-08T06:52:51;8.40;99.90
18733;DHT22;9495;51.210;2.934;2023-01-08T06:55:21;8.30;99.90
18733;DHT22;9495;51.210;2.934;2023-01-08T06:57:52;8.50;99.90
18733;DHT22;9495;51.210;2.934;2023-01-08T07:00:21;8.60;99.90
18733;DHT22;9495;51.210;2.934;2023-01-08T07:02:52;8.50;99.90
18733;DHT22;9495;51.210;2.934;2023-01-08T07:05:22;8.50;99.90
18733;DHT22;9495;51.210;2.934;2023-01-08T07:07:51;8.70;99.90
18733;DHT22;9495;51.210;2.934;2023-01-08T07:10:19;8.70;99.90
18733;DHT22;9495;51.210;2.934;2023-01-08T07:12:48;8.50;99.90
18733;DHT22;9495;51.210;2.934;2023-01-08T07:15:17;8.30;99.90
18733;DHT22;9495;51.210;2.934;2023-01-08T07:17:45;8.40;99.90
18733;DHT22;9495;51.210;2.934;2023-01-08T07:20:13;8.60;99.90
18733;DHT22;9495;51.210;2.934;2023-01-08T07:22:43;8.70;99.90
18733;DHT22;9495;51.210;2.934;2023-01-08T07:25:11;8.60;99.90
18733;DHT22;9495;51.210;2.934;2023-01-08T07:27:40;8.80;99.90
18733;DHT22;9495;51.210;2.934;2023-01-08T07:30:09;8.30;99.90
18733;DHT22;9495;51.210;2.934;2023-01-08T07:32:57;8.20;99.90
18733;DHT22;9495;51.210;2.934;2023-01-08T07:35:26;8.10;99.90
18733;DHT22;9495;51.210;2.934;2023-01-08T07:37:56;8.00;99.90
18733;DHT22;9495;51.210;2.934;2023-01-08T07:40:25;7.90;99.90
18733;DHT22;9495;51.210;2.934;2023-01-08T07:42:59;8.00;99.90
18733;DHT22;9495;51.210;2.934;2023-01-08T07:45:28;8.10;99.90
18733;DHT22;9495;51.210;2.934;2023-01-08T07:47:57;8.00;99.90
18733;DHT22;9495;51.210;2.934;2023-01-08T07:50:26;8.20;99.90
18733;DHT22;9495;51.210;2.934;2023-01-08T07:53:00;8.50;99.90
18733;DHT22;9495;51.210;2.934;2023-01-08T07:55:29;8.70;99.90
18733;DHT22;9495;51.210;2.934;2023-01-08T07:57:58;9.10;99.90
18733;DHT22;9495;51.210;2.934;2023-01-08T08:00:26;8.40;99.90
18733;DHT22;9495;51.210;2.934;2023-01-08T08:02:55;9.30;99.90
18733;DHT22;9495;51.210;2.934;2023-01-08T08:05:29;8.70;99.90
18733;DHT22;9495;51.210;2.934;2023-01-08T08:07:59;8.80;99.90
18733;DHT22;9495;51.210;2.934;2023-01-08T08:10:27;8.50;99.90
18733;DHT22;9495;51.210;2.934;2023-01-08T08:12:56;8.60;99.90
18733;DHT22;9495;51.210;2.934;2023-01-08T08:15:24;8.80;99.90
18733;DHT22;9495;51.210;2.934;2023-01-08T08:17:52;8.90;99.90
18733;DHT22;9495;51.210;2.934;2023-01-08T08:20:21;9.00;99.90
18733;DHT22;9495;51.210;2.934;2023-01-08T08:22:49;9.70;99.90
18733;DHT22;9495;51.210;2.934;2023-01-08T08:25:19;10.60;99.90
18733;DHT22;9495;51.210;2.934;2023-01-08T08:27:47;10.60;99.90
18733;DHT22;9495;51.210;2.934;2023-01-08T08:30:15;10.00;99.90
18733;DHT22;9495;51.210;2.934;2023-01-08T08:32:46;9.50;99.90
18733;DHT22;9495;51.210;2.934;2023-01-08T08:35:14;9.60;99.90
18733;DHT22;9495;51.210;2.934;2023-01-08T08:37:43;9.60;99.90
18733;DHT22;9495;51.210;2.934;2023-01-08T08:40:11;10.00;99.90
18733;DHT22;9495;51.210;2.934;2023-01-08T08:42:41;10.10;99.90
18733;DHT22;9495;51.210;2.934;2023-01-08T08:45:10;10.00;99.90
18733;DHT22;9495;51.210;2.934;2023-01-08T08:47:39;11.30;99.90
18733;DHT22;9495;51.210;2.934;2023-01-08T08:50:08;11.50;99.90
18733;DHT22;9495;51.210;2.934;2023-01-08T08:52:36;11.80;99.90
18733;DHT22;9495;51.210;2.934;2023-01-08T08:55:05;11.20;99.90
18733;DHT22;9495;51.210;2.934;2023-01-08T08:57:34;11.30;99.90
18733;DHT22;9495;51.210;2.934;2023-01-08T09:00:04;11.30;99.90
18733;DHT22;9495;51.210;2.934;2023-01-08T09:02:32;12.10;99.90
18733;DHT22;9495;51.210;2.934;2023-01-08T09:05:01;11.60;99.90
18733;DHT22;9495;51.210;2.934;2023-01-08T09:07:30;11.20;99.90
18733;DHT22;9495;51.210;2.934;2023-01-08T09:09:58;10.80;99.90
18733;DHT22;9495;51.210;2.934;2023-01-08T09:12:27;11.40;99.90
18733;DHT22;9495;51.210;2.934;2023-01-08T09:14:55;11.50;99.90
18733;DHT22;9495;51.210;2.934;2023-01-08T09:17:25;12.80;99.90
18733;DHT22;9495;51.210;2.934;2023-01-08T09:19:53;12.90;99.90
18733;DHT22;9495;51.210;2.934;2023-01-08T09:22:22;12.30;99.90
18733;DHT22;9495;51.210;2.934;2023-01-08T09:24:50;12.70;99.90
18733;DHT22;9495;51.210;2.934;2023-01-08T09:27:21;12.40;99.90
18733;DHT22;9495;51.210;2.934;2023-01-08T09:29:49;12.10;99.90
18733;DHT22;9495;51.210;2.934;2023-01-08T09:32:17;12.10;99.90
18733;DHT22;9495;51.210;2.934;2023-01-08T09:34:47;12.30;99.90
18733;DHT22;9495;51.210;2.934;2023-01-08T09:37:16;11.60;99.90
18733;DHT22;9495;51.210;2.934;2023-01-08T09:39:44;12.20;99.90
18733;DHT22;9495;51.210;2.934;2023-01-08T09:42:22;11.80;99.90
18733;DHT22;9495;51.210;2.934;2023-01-08T09:44:53;11.70;99.90
18733;DHT22;9495;51.210;2.934;2023-01-08T09:47:24;11.60;99.90
18733;DHT22;9495;51.210;2.934;2023-01-08T09:49:58;11.20;99.90
18733;DHT22;9495;51.210;2.934;2023-01-08T09:52:29;12.00;99.90
18733;DHT22;9495;51.210;2.934;2023-01-08T09:54:59;13.10;99.90
18733;DHT22;9495;51.210;2.934;2023-01-08T09:57:28;12.40;99.90
18733;DHT22;9495;51.210;2.934;2023-01-08T09:59:57;12.70;99.90
18733;DHT22;9495;51.210;2.934;2023-01-08T10:02:26;11.50;99.90
18733;DHT22;9495;51.210;2.934;2023-01-08T10:04:59;10.70;99.90
18733;DHT22;9495;51.210;2.934;2023-01-08T10:07:29;10.60;99.90
18733;DHT22;9495;51.210;2.934;2023-01-08T10:09:58;10.50;99.90
18733;DHT22;9495;51.210;2.934;2023-01-08T10:12:27;9.90;99.90
18733;DHT22;9495;51.210;2.934;2023-01-08T10:15:00;12.60;99.90
18733;DHT22;9495;51.210;2.934;2023-01-08T10:17:33;13.80;99.90
18733;DHT22;9495;51.210;2.934;2023-01-08T10:20:10;14.40;99.90
18733;DHT22;9495;51.210;2.934;2023-01-08T10:22:39;14.50;99.90
18733;DHT22;9495;51.210;2.934;2023-01-08T10:25:09;14.90;99.90
18733;DHT22;9495;51.210;2.934;2023-01-08T10:27:46;15.60;99.90
18733;DHT22;9495;51.210;2.934;2023-01-08T10:30:16;15.90;99.90
18733;DHT22;9495;51.210;2.934;2023-01-08T10:32:51;15.70;99.90
18733;DHT22;9495;51.210;2.934;2023-01-08T10:35:34;15.80;99.90
18733;DHT22;9495;51.210;2.934;2023-01-08T10:38:03;15.60;99.90
18733;DHT22;9495;51.210;2.934;2023-01-08T10:40:35;15.90;99.90
18733;DHT22;9495;51.210;2.934;2023-01-08T10:43:07;15.50;99.90
18733;DHT22;9495;51.210;2.934;2023-01-08T10:45:36;15.60;99.90
18733;DHT22;9495;51.210;2.934;2023-01-08T10:48:06;15.80;99.90
18733;DHT22;9495;51.210;2.934;2023-01-08T10:50:36;15.60;99.90
18733;DHT22;9495;51.210;2.934;2023-01-08T10:53:17;15.80;99.90
18733;DHT22;9495;51.210;2.934;2023-01-08T10:55:56;16.00;99.90
18733;DHT22;9495;51.210;2.934;2023-01-08T10:58:26;15.80;99.90
18733;DHT22;9495;51.210;2.934;2023-01-08T11:00:55;15.90;99.90
18733;DHT22;9495;51.210;2.934;2023-01-08T11:03:35;15.80;99.90
18733;DHT22;9495;51.210;2.934;2023-01-08T11:06:11;15.90;99.90
18733;DHT22;9495;51.210;2.934;2023-01-08T11:08:49;16.20;99.90
18733;DHT22;9495;51.210;2.934;2023-01-08T11:11:18;16.70;99.90
18733;DHT22;9495;51.210;2.934;2023-01-08T11:13:55;16.40;99.90
18733;DHT22;9495;51.210;2.934;2023-01-08T11:16:32;16.70;99.90
18733;DHT22;9495;51.210;2.934;2023-01-08T11:19:02;17.00;99.90
18733;DHT22;9495;51.210;2.934;2023-01-08T11:21:32;16.60;99.90
18733;DHT22;9495;51.210;2.934;2023-01-08T11:24:10;16.10;99.90
18733;DHT22;9495;51.210;2.934;2023-01-08T11:26:45;15.90;99.90
18733;DHT22;9495;51.210;2.934;2023-01-08T11:29:17;15.90;99.90
18733;DHT22;9495;51.210;2.934;2023-01-08T11:31:52;13.20;99.90
18733;DHT22;9495;51.210;2.934;2023-01-08T11:34:27;12.40;99.90
18733;DHT22;9495;51.210;2.934;2023-01-08T11:37:02;11.70;99.90
18733;DHT22;9495;51.210;2.934;2023-01-08T11:39:33;11.30;99.90
18733;DHT22;9495;51.210;2.934;2023-01-08T11:42:12;11.30;99.90
18733;DHT22;9495;51.210;2.934;2023-01-08T11:44:49;11.40;99.90
18733;DHT22;9495;51.210;2.934;2023-01-08T11:47:40;11.40;99.90
18733;DHT22;9495;51.210;2.934;2023-01-08T11:50:15;11.80;99.90
18733;DHT22;9495;51.210;2.934;2023-01-08T11:52:59;11.30;99.90
18733;DHT22;9495;51.210;2.934;2023-01-08T11:55:45;12.10;99.90
18733;DHT22;9495;51.210;2.934;2023-01-08T11:58:21;11.80;99.90
18733;DHT22;9495;51.210;2.934;2023-01-08T12:01:09;11.80;99.90
18733;DHT22;9495;51.210;2.934;2023-01-08T12:03:45;11.90;99.90
18733;DHT22;9495;51.210;2.934;2023-01-08T12:06:26;11.40;99.90
18733;DHT22;9495;51.210;2.934;2023-01-08T12:09:08;11.20;99.90
18733;DHT22;9495;51.210;2.934;2023-01-08T12:11:43;11.20;99.90
18733;DHT22;9495;51.210;2.934;2023-01-08T12:14:35;11.30;99.90
18733;DHT22;9495;51.210;2.934;2023-01-08T12:17:31;11.60;99.90
18733;DHT22;9495;51.210;2.934;2023-01-08T12:20:14;11.40;99.90
18733;DHT22;9495;51.210;2.934;2023-01-08T12:22:50;12.40;99.90
18733;DHT22;9495;51.210;2.934;2023-01-08T12:25:36;11.50;99.90
18733;DHT22;9495;51.210;2.934;2023-01-08T12:28:15;12.80;99.90
18733;DHT22;9495;51.210;2.934;2023-01-08T12:30:55;12.50;99.90
18733;DHT22;9495;51.210;2.934;2023-01-08T12:33:32;13.60;99.90
18733;DHT22;9495;51.210;2.934;2023-01-08T12:36:07;15.10;99.90
18733;DHT22;9495;51.210;2.934;2023-01-08T12:38:38;15.10;99.90
18733;DHT22;9495;51.210;2.934;2023-01-08T12:41:11;14.70;99.90
18733;DHT22;9495;51.210;2.934;2023-01-08T12:43:48;15.40;99.90
18733;DHT22;9495;51.210;2.934;2023-01-08T12:46:18;15.50;99.90
18733;DHT22;9495;51.210;2.934;2023-01-08T12:48:49;15.80;99.90
18733;DHT22;9495;51.210;2.934;2023-01-08T12:51:25;15.40;99.90
18733;DHT22;9495;51.210;2.934;2023-01-08T12:54:01;15.50;99.90
18733;DHT22;9495;51.210;2.934;2023-01-08T12:56:37;15.70;99.90
18733;DHT22;9495;51.210;2.934;2023-01-08T12:59:19;15.00;99.90
18733;DHT22;9495;51.210;2.934;2023-01-08T13:01:54;15.70;99.90
18733;DHT22;9495;51.210;2.934;2023-01-08T13:04:25;15.60;99.90
18733;DHT22;9495;51.210;2.934;2023-01-08T13:07:03;15.70;99.90
18733;DHT22;9495;51.210;2.934;2023-01-08T13:09:32;16.00;99.90
18733;DHT22;9495;51.210;2.934;2023-01-08T13:12:02;15.80;99.90
18733;DHT22;9495;51.210;2.934;2023-01-08T13:14:39;15.10;99.90
18733;DHT22;9495;51.210;2.934;2023-01-08T13:17:15;15.30;99.90
18733;DHT22;9495;51.210;2.934;2023-01-08T13:19:50;15.50;99.90
18733;DHT22;9495;51.210;2.934;2023-01-08T13:22:27;15.20;99.90
18733;DHT22;9495;51.210;2.934;2023-01-08T13:25:28;15.10;99.90
18733;DHT22;9495;51.210;2.934;2023-01-08T13:27:58;14.70;99.90
18733;DHT22;9495;51.210;2.934;2023-01-08T13:30:38;15.20;99.90
18733;DHT22;9495;51.210;2.934;2023-01-08T13:33:34;15.10;99.90
18733;DHT22;9495;51.210;2.934;2023-01-08T13:36:14;15.20;99.90
18733;DHT22;9495;51.210;2.934;2023-01-08T13:38:43;15.20;99.90
18733;DHT22;9495;51.210;2.934;2023-01-08T13:41:27;14.70;99.90
18733;DHT22;9495;51.210;2.934;2023-01-08T13:44:01;15.30;99.90
18733;DHT22;9495;51.210;2.934;2023-01-08T13:46:33;16.00;99.90
18733;DHT22;9495;51.210;2.934;2023-01-08T13:49:04;16.20;99.90
18733;DHT22;9495;51.210;2.934;2023-01-08T13:51:40;15.80;99.90
18733;DHT22;9495;51.210;2.934;2023-01-08T13:54:18;15.50;99.90
18733;DHT22;9495;51.210;2.934;2023-01-08T13:56:52;15.60;99.90
18733;DHT22;9495;51.210;2.934;2023-01-08T13:59:35;15.80;99.90
18733;DHT22;9495;51.210;2.934;2023-01-08T14:02:21;15.10;99.90
18733;DHT22;9495;51.210;2.934;2023-01-08T14:04:51;15.10;99.90
18733;DHT22;9495;51.210;2.934;2023-01-08T14:07:20;15.90;99.90
18733;DHT22;9495;51.210;2.934;2023-01-08T14:09:49;15.90;99.90
18733;DHT22;9495;51.210;2.934;2023-01-08T14:12:19;15.70;99.90
18733;DHT22;9495;51.210;2.934;2023-01-08T14:14:51;14.80;99.90
18733;DHT22;9495;51.210;2.934;2023-01-08T14:17:22;15.20;99.90
18733;DHT22;9495;51.210;2.934;2023-01-08T14:19:52;15.40;99.90
18733;DHT22;9495;51.210;2.934;2023-01-08T14:22:25;15.60;99.90
18733;DHT22;9495;51.210;2.934;2023-01-08T14:24:57;15.30;99.90
18733;DHT22;9495;51.210;2.934;2023-01-08T14:27:28;15.90;99.90
18733;DHT22;9495;51.210;2.934;2023-01-08T14:29:58;15.60;99.90
18733;DHT22;9495;51.210;2.934;2023-01-08T14:32:28;15.20;99.90
18733;DHT22;9495;51.210;2.934;2023-01-08T14:34:58;15.20;99.90
18733;DHT22;9495;51.210;2.934;2023-01-08T14:37:27;15.20;99.90
18733;DHT22;9495;51.210;2.934;2023-01-08T14:39:55;15.00;99.90
18733;DHT22;9495;51.210;2.934;2023-01-08T14:42:31;15.30;99.90
18733;DHT22;9495;51.210;2.934;2023-01-08T14:45:19;15.50;99.90
18733;DHT22;9495;51.210;2.934;2023-01-08T14:47:50;15.00;99.90
18733;DHT22;9495;51.210;2.934;2023-01-08T14:50:23;15.60;99.90
18733;DHT22;9495;51.210;2.934;2023-01-08T14:52:53;15.70;99.90
18733;DHT22;9495;51.210;2.934;2023-01-08T14:55:22;14.90;99.90
18733;DHT22;9495;51.210;2.934;2023-01-08T14:57:54;14.80;99.90
18733;DHT22;9495;51.210;2.934;2023-01-08T15:00:26;14.80;99.90
18733;DHT22;9495;51.210;2.934;2023-01-08T15:02:55;14.40;99.90
18733;DHT22;9495;51.210;2.934;2023-01-08T15:05:26;15.10;99.90
18733;DHT22;9495;51.210;2.934;2023-01-08T15:07:58;15.90;99.90
18733;DHT22;9495;51.210;2.934;2023-01-08T15:10:36;15.50;99.90
18733;DHT22;9495;51.210;2.934;2023-01-08T15:13:05;14.80;99.90
18733;DHT22;9495;51.210;2.934;2023-01-08T15:15:40;15.40;99.90
18733;DHT22;9495;51.210;2.934;2023-01-08T15:18:19;15.40;99.90
18733;DHT22;9495;51.210;2.934;2023-01-08T15:20:47;14.90;99.90
18733;DHT22;9495;51.210;2.934;2023-01-08T15:23:36;14.40;99.90
18733;DHT22;9495;51.210;2.934;2023-01-08T15:26:08;15.10;99.90
18733;DHT22;9495;51.210;2.934;2023-01-08T15:28:37;15.50;99.90
18733;DHT22;9495;51.210;2.934;2023-01-08T15:31:22;15.50;99.90
18733;DHT22;9495;51.210;2.934;2023-01-08T15:33:51;15.30;99.90
18733;DHT22;9495;51.210;2.934;2023-01-08T15:36:19;15.40;99.90
18733;DHT22;9495;51.210;2.934;2023-01-08T15:38:48;15.50;99.90
18733;DHT22;9495;51.210;2.934;2023-01-08T15:41:18;15.50;99.90
18733;DHT22;9495;51.210;2.934;2023-01-08T15:44:08;15.20;99.90
18733;DHT22;9495;51.210;2.934;2023-01-08T15:46:39;15.60;99.90
18733;DHT22;9495;51.210;2.934;2023-01-08T15:49:07;15.30;99.90
18733;DHT22;9495;51.210;2.934;2023-01-08T15:51:40;15.20;99.90
18733;DHT22;9495;51.210;2.934;2023-01-08T15:54:10;15.30;99.90
18733;DHT22;9495;51.210;2.934;2023-01-08T15:56:40;15.30;99.90
18733;DHT22;9495;51.210;2.934;2023-01-08T15:59:08;15.90;99.90
18733;DHT22;9495;51.210;2.934;2023-01-08T16:01:38;15.40;99.90
18733;DHT22;9495;51.210;2.934;2023-01-08T16:04:07;15.20;99.90
18733;DHT22;9495;51.210;2.934;2023-01-08T16:06:36;14.80;99.90
18733;DHT22;9495;51.210;2.934;2023-01-08T16:09:04;14.50;99.90
18733;DHT22;9495;51.210;2.934;2023-01-08T16:11:32;14.80;99.90
18733;DHT22;9495;51.210;2.934;2023-01-08T16:14:01;15.20;99.90
18733;DHT22;9495;51.210;2.934;2023-01-08T16:16:29;15.60;99.90
18733;DHT22;9495;51.210;2.934;2023-01-08T16:18:59;15.30;99.90
18733;DHT22;9495;51.210;2.934;2023-01-08T16:21:28;15.00;99.90